createdAt,value
2019-05-02T00:00:58.428Z,0.00
2019-05-02T00:01:58.414Z,0.00
2019-05-02T00:02:59.848Z,0.00
2019-05-02T00:03:58.395Z,0.00
2019-05-02T00:04:58.383Z,0.00
2019-05-02T00:05:58.373Z,0.00
2019-05-02T00:06:58.361Z,0.00
2019-05-02T00:07:58.669Z,0.00
2019-05-02T00:08:58.343Z,0.00
2019-05-02T00:09:58.334Z,0.00
2019-05-02T00:10:58.319Z,0.00
2019-05-02T00:11:59.048Z,0.00
2019-05-02T00:12:58.301Z,0.00
2019-05-02T00:13:58.289Z,0.00
2019-05-02T00:15:02.002Z,0.00
2019-05-02T00:15:59.268Z,0.00
2019-05-02T00:16:58.255Z,0.00
2019-05-02T00:18:01.356Z,0.00
2019-05-02T00:18:58.232Z,0.00
2019-05-02T00:19:58.222Z,0.00
2019-05-02T00:21:01.431Z,0.00
2019-05-02T00:21:58.202Z,0.00
2019-05-02T00:22:58.195Z,0.00
2019-05-02T00:23:59.195Z,0.00
2019-05-02T00:24:58.169Z,0.00
2019-05-02T00:25:58.158Z,0.00
2019-05-02T00:27:01.270Z,0.00
2019-05-02T00:27:58.137Z,0.00
2019-05-02T00:28:58.127Z,0.00
2019-05-02T00:29:58.653Z,0.00
2019-05-02T00:30:58.108Z,0.00
2019-05-02T00:31:58.095Z,0.00
2019-05-02T00:32:59.492Z,0.00
2019-05-02T00:33:58.073Z,0.00
2019-05-02T00:34:58.062Z,0.00
2019-05-02T00:35:58.051Z,0.00
2019-05-02T00:36:58.043Z,0.00
2019-05-02T00:38:02.419Z,0.00
2019-05-02T00:38:58.019Z,0.00
2019-05-02T00:39:58.008Z,0.00
2019-05-02T00:41:02.158Z,0.00
2019-05-02T00:42:11.782Z,0.00
2019-05-02T00:42:59.637Z,0.00
2019-05-02T00:43:57.970Z,0.00
2019-05-02T00:44:57.953Z,0.00
2019-05-02T00:45:59.704Z,0.00
2019-05-02T00:46:57.933Z,0.00
2019-05-02T00:47:57.921Z,0.00
2019-05-02T00:48:59.847Z,0.00
2019-05-02T00:49:57.904Z,0.00
2019-05-02T00:50:57.892Z,0.00
2019-05-02T00:52:01.351Z,0.00
2019-05-02T00:52:58.867Z,0.00
2019-05-02T00:53:57.858Z,0.00
2019-05-02T00:54:58.701Z,0.00
2019-05-02T00:55:57.840Z,0.00
2019-05-02T00:56:57.826Z,0.00
2019-05-02T00:57:57.814Z,0.00
2019-05-02T00:59:02.278Z,0.00
2019-05-02T00:59:58.807Z,0.00
2019-05-02T01:00:57.785Z,0.00
2019-05-02T01:02:00.152Z,0.00
2019-05-02T01:02:58.760Z,0.00
2019-05-02T01:03:57.755Z,0.00
2019-05-02T01:04:59.275Z,0.00
2019-05-02T01:05:58.733Z,0.00
2019-05-02T01:06:57.718Z,0.00
2019-05-02T01:08:01.039Z,0.00
2019-05-02T01:08:58.696Z,0.00
2019-05-02T01:09:57.694Z,0.00
2019-05-02T01:10:58.099Z,0.00
2019-05-02T01:11:57.666Z,0.00
2019-05-02T01:12:57.658Z,0.00
2019-05-02T01:13:57.784Z,0.00
2019-05-02T01:14:57.633Z,0.00
2019-05-02T01:15:57.623Z,0.00
2019-05-02T01:16:57.613Z,0.00
2019-05-02T01:18:01.190Z,0.00
2019-05-02T01:18:58.591Z,0.00
2019-05-02T01:19:57.581Z,0.00
2019-05-02T01:20:58.060Z,0.00
2019-05-02T01:21:57.560Z,0.00
2019-05-02T01:22:57.547Z,0.00
2019-05-02T01:23:58.905Z,0.00
2019-05-02T01:24:58.526Z,0.00
2019-05-02T01:25:57.518Z,0.00
2019-05-02T01:26:59.823Z,0.00
2019-05-02T01:27:58.493Z,0.00
2019-05-02T01:28:57.484Z,0.00
2019-05-02T01:30:01.396Z,0.00
2019-05-02T01:30:58.459Z,0.00
2019-05-02T01:31:57.451Z,0.00
2019-05-02T01:33:01.508Z,0.00
2019-05-02T01:33:58.427Z,0.00
2019-05-02T01:34:57.419Z,0.00
2019-05-02T01:35:57.412Z,0.00
2019-05-02T01:36:57.398Z,0.00
2019-05-02T01:37:57.387Z,0.00
2019-05-02T01:38:57.380Z,0.00
2019-05-02T01:39:57.366Z,0.00
2019-05-02T01:40:57.356Z,0.00
2019-05-02T01:41:59.976Z,0.00
2019-05-02T01:42:58.332Z,0.00
2019-05-02T01:44:00.086Z,0.00
2019-05-02T01:44:57.312Z,0.00
2019-05-02T01:45:57.321Z,0.00
2019-05-02T01:46:58.789Z,0.00
2019-05-02T01:47:57.281Z,0.00
2019-05-02T01:48:57.270Z,0.00
2019-05-02T01:49:59.052Z,0.00
2019-05-02T01:50:57.248Z,0.00
2019-05-02T01:51:57.240Z,0.00
2019-05-02T01:52:58.493Z,0.00
2019-05-02T01:53:57.216Z,0.00
2019-05-02T01:54:57.206Z,0.00
2019-05-02T01:55:59.198Z,0.00
2019-05-02T01:56:57.187Z,0.00
2019-05-02T01:57:57.195Z,0.00
2019-05-02T01:58:57.730Z,0.00
2019-05-02T01:59:57.152Z,0.00
2019-05-02T02:00:57.144Z,0.00
2019-05-02T02:01:57.958Z,0.00
2019-05-02T02:02:57.119Z,0.00
2019-05-02T02:03:57.108Z,0.00
2019-05-02T02:04:58.036Z,0.00
2019-05-02T02:05:57.089Z,0.00
2019-05-02T02:06:57.077Z,0.00
2019-05-02T02:07:57.499Z,0.00
2019-05-02T02:08:57.056Z,0.00
2019-05-02T02:09:57.045Z,0.00
2019-05-02T02:10:58.182Z,0.00
2019-05-02T02:11:57.023Z,0.00
2019-05-02T02:13:04.880Z,0.00
2019-05-02T02:13:57.999Z,0.00
2019-05-02T02:14:56.992Z,0.00
2019-05-02T02:16:00.258Z,0.00
2019-05-02T02:16:57.968Z,0.00
2019-05-02T02:17:56.960Z,0.00
2019-05-02T02:18:59.070Z,0.00
2019-05-02T02:19:57.938Z,0.00
2019-05-02T02:20:56.927Z,0.00
2019-05-02T02:21:57.316Z,0.00
2019-05-02T02:22:57.905Z,0.00
2019-05-02T02:23:56.918Z,0.00
2019-05-02T02:25:01.001Z,0.00
2019-05-02T02:25:57.872Z,0.00
2019-05-02T02:26:56.863Z,0.00
2019-05-02T02:27:59.633Z,0.00
2019-05-02T02:28:56.841Z,0.00
2019-05-02T02:29:56.830Z,0.00
2019-05-02T02:31:02.198Z,0.00
2019-05-02T02:31:57.812Z,0.00
2019-05-02T02:33:00.618Z,0.00
2019-05-02T02:33:57.786Z,0.00
2019-05-02T02:34:56.784Z,0.00
2019-05-02T02:35:56.768Z,0.00
2019-05-02T02:36:56.756Z,0.00
2019-05-02T02:37:56.744Z,0.00
2019-05-02T02:38:56.735Z,0.00
2019-05-02T02:39:56.725Z,0.00
2019-05-02T02:40:56.712Z,0.00
2019-05-02T02:41:56.704Z,0.00
2019-05-02T02:42:56.693Z,0.00
2019-05-02T02:44:00.514Z,0.00
2019-05-02T02:44:56.669Z,0.00
2019-05-02T02:45:57.675Z,0.00
2019-05-02T02:46:56.649Z,0.00
2019-05-02T02:48:00.051Z,0.00
2019-05-02T02:48:57.626Z,0.00
2019-05-02T02:50:02.356Z,0.00
2019-05-02T02:50:57.608Z,0.00
2019-05-02T02:51:58.136Z,0.00
2019-05-02T02:52:57.583Z,0.00
2019-05-02T02:54:03.615Z,0.00
2019-05-02T02:54:57.562Z,0.00
2019-05-02T02:56:01.695Z,0.00
2019-05-02T02:56:57.541Z,0.00
2019-05-02T02:57:58.502Z,0.00
2019-05-02T02:58:57.521Z,0.00
2019-05-02T03:00:06.119Z,0.00
2019-05-02T03:00:57.500Z,0.00
2019-05-02T03:01:56.488Z,0.00
2019-05-02T03:02:56.477Z,0.00
2019-05-02T03:04:01.998Z,4.00
2019-05-02T03:04:57.455Z,4.00
2019-05-02T03:05:58.681Z,4.00
2019-05-02T03:06:57.434Z,4.00
2019-05-02T03:07:59.677Z,4.00
2019-05-02T03:08:57.418Z,0.00
2019-05-02T03:09:59.540Z,4.00
2019-05-02T03:10:57.393Z,4.00
2019-05-02T03:12:01.455Z,4.00
2019-05-02T03:12:57.374Z,4.00
2019-05-02T03:14:06.135Z,8.00
2019-05-02T03:14:57.355Z,8.00
2019-05-02T03:16:00.441Z,12.00
2019-05-02T03:16:57.325Z,8.00
2019-05-02T03:17:59.980Z,16.00
2019-05-02T03:18:56.307Z,16.00
2019-05-02T03:20:01.236Z,20.00
2019-05-02T03:20:57.285Z,24.00
2019-05-02T03:22:01.056Z,24.00
2019-05-02T03:22:57.267Z,24.00
2019-05-02T03:24:03.042Z,28.00
2019-05-02T03:24:57.254Z,36.00
2019-05-02T03:25:56.232Z,36.00
2019-05-02T03:26:58.295Z,40.00
2019-05-02T03:27:56.210Z,48.00
2019-05-02T03:28:58.454Z,48.00
2019-05-02T03:29:56.188Z,56.00
2019-05-02T03:30:56.180Z,60.00
2019-05-02T03:32:12.265Z,68.00
2019-05-02T03:33:06.318Z,76.00
2019-05-02T03:34:00.698Z,80.00
2019-05-02T03:34:56.150Z,84.00
2019-05-02T03:35:56.128Z,88.00
2019-05-02T03:37:03.131Z,100.00
2019-05-02T03:37:57.102Z,112.00
2019-05-02T03:38:56.094Z,112.00
2019-05-02T03:39:57.986Z,128.00
2019-05-02T03:40:56.073Z,132.00
2019-05-02T03:42:03.081Z,140.00
2019-05-02T03:42:57.054Z,156.00
2019-05-02T03:44:10.459Z,164.00
2019-05-02T03:45:03.999Z,176.00
2019-05-02T03:45:57.030Z,188.00
2019-05-02T03:47:02.123Z,200.00
2019-05-02T03:47:57.021Z,208.00
2019-05-02T03:49:05.479Z,208.00
2019-05-02T03:49:56.976Z,236.00
2019-05-02T03:50:55.965Z,244.00
2019-05-02T03:52:02.591Z,260.00
2019-05-02T03:52:56.943Z,288.00
2019-05-02T03:54:06.256Z,316.00
2019-05-02T03:54:56.922Z,324.00
2019-05-02T03:55:55.912Z,328.00
2019-05-02T03:56:55.900Z,336.00
2019-05-02T03:57:55.891Z,336.00
2019-05-02T03:58:58.106Z,368.00
2019-05-02T03:59:55.871Z,408.00
2019-05-02T04:01:01.501Z,424.00
2019-05-02T04:01:56.854Z,460.00
2019-05-02T04:03:00.469Z,484.00
2019-05-02T04:03:56.842Z,508.00
2019-05-02T04:05:00.759Z,548.00
2019-05-02T04:05:56.814Z,540.00
2019-05-02T04:07:00.956Z,548.00
2019-05-02T04:07:56.781Z,544.00
2019-05-02T04:09:00.043Z,552.00
2019-05-02T04:09:56.763Z,556.00
2019-05-02T04:10:59.619Z,568.00
2019-05-02T04:11:56.740Z,612.00
2019-05-02T04:12:58.379Z,652.00
2019-05-02T04:13:55.726Z,652.00
2019-05-02T04:14:57.183Z,672.00
2019-05-02T04:15:55.697Z,728.00
2019-05-02T04:16:57.372Z,732.00
2019-05-02T04:17:55.675Z,756.00
2019-05-02T04:18:58.162Z,788.00
2019-05-02T04:19:55.656Z,812.00
2019-05-02T04:20:55.645Z,872.00
2019-05-02T04:22:01.513Z,888.00
2019-05-02T04:22:56.621Z,952.00
2019-05-02T04:24:07.239Z,948.00
2019-05-02T04:24:57.184Z,920.00
2019-05-02T04:25:55.591Z,928.00
2019-05-02T04:26:56.361Z,968.00
2019-05-02T04:27:55.569Z,956.00
2019-05-02T04:28:55.560Z,1024.00
2019-05-02T04:29:55.548Z,1064.00
2019-05-02T04:30:55.538Z,1068.00
2019-05-02T04:31:55.544Z,1048.00
2019-05-02T04:32:56.149Z,1008.00
2019-05-02T04:33:55.510Z,1028.00
2019-05-02T04:34:58.054Z,1088.00
2019-05-02T04:35:59.105Z,1104.00
2019-05-02T04:37:01.185Z,1088.00
2019-05-02T04:37:59.120Z,1152.00
2019-05-02T04:38:59.356Z,1208.00
2019-05-02T04:39:58.913Z,1256.00
2019-05-02T04:40:59.189Z,1308.00
2019-05-02T04:41:58.394Z,1360.00
2019-05-02T04:43:05.493Z,1432.00
2019-05-02T04:44:01.167Z,1440.00
2019-05-02T04:45:13.996Z,1392.00
2019-05-02T04:46:00.015Z,1520.00
2019-05-02T04:47:02.781Z,1492.00
2019-05-02T04:48:00.970Z,1596.00
2019-05-02T04:48:58.948Z,1696.00
2019-05-02T04:49:55.334Z,1676.00
2019-05-02T04:50:59.723Z,1632.00
2019-05-02T04:52:04.752Z,1660.00
2019-05-02T04:52:59.119Z,1648.00
2019-05-02T04:53:58.574Z,1756.00
2019-05-02T04:55:08.357Z,1912.00
2019-05-02T04:56:01.720Z,1856.00
2019-05-02T04:56:58.982Z,1720.00
2019-05-02T04:57:58.826Z,1684.00
2019-05-02T04:58:59.253Z,1672.00
2019-05-02T05:00:02.537Z,1780.00
2019-05-02T05:00:59.239Z,1748.00
2019-05-02T05:01:58.540Z,1680.00
2019-05-02T05:02:58.048Z,1940.00
2019-05-02T05:03:58.586Z,1956.00
2019-05-02T05:04:58.199Z,1852.00
2019-05-02T05:05:59.484Z,1848.00
2019-05-02T05:07:00.896Z,2028.00
2019-05-02T05:07:58.468Z,2068.00
2019-05-02T05:08:55.134Z,2068.00
2019-05-02T05:09:58.383Z,2080.00
2019-05-02T05:10:57.356Z,2276.00
2019-05-02T05:11:59.070Z,2176.00
2019-05-02T05:12:57.169Z,2176.00
2019-05-02T05:13:57.615Z,2288.00
2019-05-02T05:14:57.828Z,2376.00
2019-05-02T05:15:57.260Z,2368.00
2019-05-02T05:16:56.092Z,2328.00
2019-05-02T05:17:55.031Z,2580.00
2019-05-02T05:18:55.022Z,2492.00
2019-05-02T05:19:55.015Z,2516.00
2019-05-02T05:20:55.000Z,2708.00
2019-05-02T05:21:56.717Z,2932.00
2019-05-02T05:22:58.048Z,3008.00
2019-05-02T05:23:59.628Z,2964.00
2019-05-02T05:24:58.181Z,2884.00
2019-05-02T05:25:55.659Z,2960.00
2019-05-02T05:26:57.805Z,3036.00
2019-05-02T05:28:00.235Z,2848.00
2019-05-02T05:28:57.945Z,3024.00
2019-05-02T05:29:59.435Z,3056.00
2019-05-02T05:30:58.220Z,2944.00
2019-05-02T05:32:02.384Z,3076.00
2019-05-02T05:32:55.869Z,3024.00
2019-05-02T05:33:54.860Z,2776.00
2019-05-02T05:34:54.849Z,2776.00
2019-05-02T05:35:54.840Z,2824.00
2019-05-02T05:36:54.828Z,2924.00
2019-05-02T05:37:54.820Z,2928.00
2019-05-02T05:38:54.806Z,2780.00
2019-05-02T05:39:54.799Z,2756.00
2019-05-02T05:40:54.785Z,2564.00
2019-05-02T05:41:54.774Z,2748.00
2019-05-02T05:42:54.766Z,2732.00
2019-05-02T05:43:54.752Z,2672.00
2019-05-02T05:44:54.746Z,2768.00
2019-05-02T05:46:06.106Z,2788.00
2019-05-02T05:46:57.983Z,2852.00
2019-05-02T05:47:57.583Z,3032.00
2019-05-02T05:48:57.806Z,3052.00
2019-05-02T05:49:57.538Z,3052.00
2019-05-02T05:50:55.675Z,3256.00
2019-05-02T05:52:02.288Z,3236.00
2019-05-02T05:52:59.262Z,3080.00
2019-05-02T05:53:58.980Z,3216.00
2019-05-02T05:54:57.789Z,3324.00
2019-05-02T05:55:59.045Z,3396.00
2019-05-02T05:56:57.264Z,3148.00
2019-05-02T05:58:00.032Z,3500.00
2019-05-02T05:58:58.860Z,3776.00
2019-05-02T05:59:54.582Z,3920.00
2019-05-02T06:00:56.507Z,3456.00
2019-05-02T06:01:54.560Z,3580.00
2019-05-02T06:03:01.371Z,4004.00
2019-05-02T06:03:57.843Z,3852.00
2019-05-02T06:04:55.160Z,3832.00
2019-05-02T06:05:54.516Z,3668.00
2019-05-02T06:06:58.801Z,3524.00
2019-05-02T06:07:57.413Z,3552.00
2019-05-02T06:08:55.419Z,3564.00
2019-05-02T06:09:54.473Z,3408.00
2019-05-02T06:10:54.482Z,3616.00
2019-05-02T06:11:55.353Z,3848.00
2019-05-02T06:12:54.441Z,3676.00
2019-05-02T06:13:54.429Z,3888.00
2019-05-02T06:14:56.283Z,3916.00
2019-05-02T06:16:01.951Z,4032.00
2019-05-02T06:16:55.396Z,3692.00
2019-05-02T06:17:54.385Z,3944.00
2019-05-02T06:18:54.374Z,4616.00
2019-05-02T06:19:55.436Z,4660.00
2019-05-02T06:20:54.353Z,4888.00
2019-05-02T06:21:54.342Z,4932.00
2019-05-02T06:22:55.047Z,4992.00
2019-05-02T06:23:55.319Z,5168.00
2019-05-02T06:24:54.310Z,5520.00
2019-05-02T06:25:54.300Z,5592.00
2019-05-02T06:26:54.287Z,5300.00
2019-05-02T06:27:54.279Z,4924.00
2019-05-02T06:28:54.267Z,4400.00
2019-05-02T06:29:56.058Z,4408.00
2019-05-02T06:30:54.244Z,4368.00
2019-05-02T06:31:54.233Z,4184.00
2019-05-02T06:32:55.063Z,4292.00
2019-05-02T06:33:54.212Z,4456.00
2019-05-02T06:34:54.202Z,4908.00
2019-05-02T06:36:01.026Z,4992.00
2019-05-02T06:36:55.177Z,4848.00
2019-05-02T06:37:54.170Z,4912.00
2019-05-02T06:38:56.597Z,4984.00
2019-05-02T06:39:54.146Z,4820.00
2019-05-02T06:40:54.137Z,4988.00
2019-05-02T06:41:57.499Z,4960.00
2019-05-02T06:42:54.115Z,5188.00
2019-05-02T06:43:54.107Z,5160.00
2019-05-02T06:44:54.867Z,5684.00
2019-05-02T06:45:55.083Z,5648.00
2019-05-02T06:46:54.072Z,6140.00
2019-05-02T06:47:54.060Z,6328.00
2019-05-02T06:48:54.051Z,6704.00
2019-05-02T06:49:56.046Z,6988.00
2019-05-02T06:50:55.027Z,6656.00
2019-05-02T06:51:56.305Z,6376.00
2019-05-02T06:52:54.008Z,6420.00
2019-05-02T06:53:53.996Z,6156.00
2019-05-02T06:54:57.892Z,5868.00
2019-05-02T06:55:53.976Z,6260.00
2019-05-02T06:56:53.966Z,6584.00
2019-05-02T06:57:56.899Z,6880.00
2019-05-02T06:58:54.944Z,7212.00
2019-05-02T06:59:54.694Z,7452.00
2019-05-02T07:00:58.357Z,7700.00
2019-05-02T07:01:57.351Z,7032.00
2019-05-02T07:02:53.900Z,7068.00
2019-05-02T07:03:53.891Z,6568.00
2019-05-02T07:04:54.957Z,6468.00
2019-05-02T07:05:58.655Z,6160.00
2019-05-02T07:06:59.567Z,6284.00
2019-05-02T07:07:54.883Z,6044.00
2019-05-02T07:08:53.849Z,5668.00
2019-05-02T07:09:53.831Z,6012.00
2019-05-02T07:10:56.049Z,6172.00
2019-05-02T07:11:57.861Z,5744.00
2019-05-02T07:13:09.391Z,5652.00
2019-05-02T07:13:54.783Z,5408.00
2019-05-02T07:14:55.989Z,5764.00
2019-05-02T07:15:54.758Z,5716.00
2019-05-02T07:16:54.625Z,5540.00
2019-05-02T07:17:53.740Z,5204.00
2019-05-02T07:18:53.731Z,4764.00
2019-05-02T07:19:53.721Z,4172.00
2019-05-02T07:20:53.707Z,4112.00
2019-05-02T07:21:58.649Z,4336.00
2019-05-02T07:22:54.694Z,4668.00
2019-05-02T07:23:55.050Z,4836.00
2019-05-02T07:24:53.668Z,4936.00
2019-05-02T07:25:53.653Z,4728.00
2019-05-02T07:26:56.858Z,4484.00
2019-05-02T07:27:53.632Z,4264.00
2019-05-02T07:28:53.621Z,4496.00
2019-05-02T07:29:57.838Z,4372.00
2019-05-02T07:30:54.935Z,4244.00
2019-05-02T07:31:53.716Z,4196.00
2019-05-02T07:32:56.297Z,4208.00
2019-05-02T07:33:54.569Z,4612.00
2019-05-02T07:34:53.559Z,4576.00
2019-05-02T07:35:55.135Z,4772.00
2019-05-02T07:36:54.532Z,4824.00
2019-05-02T07:37:53.522Z,4908.00
2019-05-02T07:38:57.623Z,4736.00
2019-05-02T07:39:54.501Z,4408.00
2019-05-02T07:40:54.346Z,4208.00
2019-05-02T07:41:53.479Z,4456.00
2019-05-02T07:42:53.468Z,4624.00
2019-05-02T07:43:56.274Z,4592.00
2019-05-02T07:44:53.446Z,4696.00
2019-05-02T07:45:53.437Z,5092.00
2019-05-02T07:46:56.945Z,4948.00
2019-05-02T07:47:54.416Z,5212.00
2019-05-02T07:48:54.690Z,5376.00
2019-05-02T07:49:53.393Z,5348.00
2019-05-02T07:50:53.938Z,4896.00
2019-05-02T07:51:57.474Z,4820.00
2019-05-02T07:52:54.361Z,4420.00
2019-05-02T07:53:55.569Z,4304.00
2019-05-02T07:54:56.062Z,4624.00
2019-05-02T07:55:54.327Z,4736.00
2019-05-02T07:56:54.591Z,4908.00
2019-05-02T07:57:53.311Z,5336.00
2019-05-02T07:58:53.296Z,5192.00
2019-05-02T07:59:54.997Z,5272.00
2019-05-02T08:00:54.281Z,4796.00
2019-05-02T08:01:53.265Z,4572.00
2019-05-02T08:02:57.953Z,4644.00
2019-05-02T08:03:54.249Z,4852.00
2019-05-02T08:04:53.232Z,5056.00
2019-05-02T08:05:54.436Z,5348.00
2019-05-02T08:06:54.208Z,4920.00
2019-05-02T08:07:55.133Z,4736.00
2019-05-02T08:08:53.188Z,5056.00
2019-05-02T08:09:53.182Z,5144.00
2019-05-02T08:10:54.735Z,5100.00
2019-05-02T08:11:54.154Z,4964.00
2019-05-02T08:12:53.160Z,5060.00
2019-05-02T08:13:55.762Z,5152.00
2019-05-02T08:14:54.122Z,5836.00
2019-05-02T08:15:53.113Z,6184.00
2019-05-02T08:17:04.904Z,5764.00
2019-05-02T08:17:55.287Z,5468.00
2019-05-02T08:18:53.080Z,5876.00
2019-05-02T08:19:53.071Z,6136.00
2019-05-02T08:20:56.039Z,5608.00
2019-05-02T08:21:53.048Z,5664.00
2019-05-02T08:22:53.040Z,6308.00
2019-05-02T08:23:57.149Z,6168.00
2019-05-02T08:24:54.015Z,5560.00
2019-05-02T08:25:53.007Z,5728.00
2019-05-02T08:26:53.534Z,6320.00
2019-05-02T08:27:52.984Z,6280.00
2019-05-02T08:28:53.265Z,6744.00
2019-05-02T08:29:52.963Z,7064.00
2019-05-02T08:30:52.955Z,7256.00
2019-05-02T08:31:52.943Z,6528.00
2019-05-02T08:32:52.947Z,6792.00
2019-05-02T08:33:52.922Z,6272.00
2019-05-02T08:34:53.515Z,6132.00
2019-05-02T08:35:52.901Z,6608.00
2019-05-02T08:36:52.896Z,6228.00
2019-05-02T08:37:55.722Z,6540.00
2019-05-02T08:38:53.757Z,6824.00
2019-05-02T08:39:52.858Z,6680.00
2019-05-02T08:40:52.847Z,6392.00
2019-05-02T08:41:56.403Z,7104.00
2019-05-02T08:42:53.841Z,8388.00
2019-05-02T08:43:52.813Z,7156.00
2019-05-02T08:44:56.432Z,7492.00
2019-05-02T08:45:53.790Z,7276.00
2019-05-02T08:46:53.289Z,7352.00
2019-05-02T08:47:52.771Z,7144.00
2019-05-02T08:48:52.760Z,7332.00
2019-05-02T08:49:54.728Z,7936.00
2019-05-02T08:50:52.739Z,8748.00
2019-05-02T08:51:52.727Z,8064.00
2019-05-02T08:52:52.717Z,7688.00
2019-05-02T08:53:56.744Z,6652.00
2019-05-02T08:54:53.691Z,7000.00
2019-05-02T08:55:52.682Z,7208.00
2019-05-02T08:56:58.168Z,6696.00
2019-05-02T08:57:53.661Z,7736.00
2019-05-02T08:58:52.651Z,7540.00
2019-05-02T08:59:55.476Z,7112.00
2019-05-02T09:00:53.628Z,7760.00
2019-05-02T09:01:52.620Z,7620.00
2019-05-02T09:02:56.906Z,7632.00
2019-05-02T09:03:56.772Z,8068.00
2019-05-02T09:04:58.804Z,7584.00
2019-05-02T09:06:05.203Z,7888.00
2019-05-02T09:06:58.710Z,7452.00
2019-05-02T09:07:53.557Z,6984.00
2019-05-02T09:08:52.891Z,6600.00
2019-05-02T09:09:55.402Z,7340.00
2019-05-02T09:10:52.520Z,7376.00
2019-05-02T09:12:03.315Z,7884.00
2019-05-02T09:12:53.497Z,8252.00
2019-05-02T09:13:52.725Z,8080.00
2019-05-02T09:14:52.477Z,8032.00
2019-05-02T09:15:54.244Z,8836.00
2019-05-02T09:16:52.456Z,8176.00
2019-05-02T09:17:56.271Z,7888.00
2019-05-02T09:18:54.226Z,7140.00
2019-05-02T09:20:00.341Z,6976.00
2019-05-02T09:20:56.447Z,8012.00
2019-05-02T09:21:52.689Z,7540.00
2019-05-02T09:22:55.952Z,6792.00
2019-05-02T09:23:52.384Z,7512.00
2019-05-02T09:24:52.376Z,7988.00
2019-05-02T09:25:52.361Z,7472.00
2019-05-02T09:26:52.352Z,8580.00
2019-05-02T09:27:52.745Z,9256.00
2019-05-02T09:28:56.344Z,8852.00
2019-05-02T09:29:53.318Z,9376.00
2019-05-02T09:30:52.538Z,8612.00
2019-05-02T09:31:52.830Z,8188.00
2019-05-02T09:32:52.488Z,9100.00
2019-05-02T09:33:55.381Z,8600.00
2019-05-02T09:34:56.522Z,8644.00
2019-05-02T09:35:53.252Z,9044.00
2019-05-02T09:36:52.952Z,9268.00
2019-05-02T09:37:52.381Z,10240.00
2019-05-02T09:38:56.009Z,11576.00
2019-05-02T09:39:53.213Z,12256.00
2019-05-02T09:40:56.043Z,9940.00
2019-05-02T09:41:52.626Z,10264.00
2019-05-02T09:42:56.367Z,9916.00
2019-05-02T09:43:53.167Z,9928.00
2019-05-02T09:44:55.749Z,9880.00
2019-05-02T09:45:52.216Z,10232.00
2019-05-02T09:46:56.585Z,10880.00
2019-05-02T09:48:01.331Z,10420.00
2019-05-02T09:48:57.144Z,8784.00
2019-05-02T09:49:53.169Z,8860.00
2019-05-02T09:50:52.810Z,8956.00
2019-05-02T09:51:59.183Z,9024.00
2019-05-02T09:52:53.073Z,8244.00
2019-05-02T09:53:52.433Z,9464.00
2019-05-02T09:54:52.052Z,9284.00
2019-05-02T09:55:55.768Z,8372.00
2019-05-02T09:56:53.031Z,8756.00
2019-05-02T09:57:52.125Z,8572.00
2019-05-02T09:58:56.782Z,8396.00
2019-05-02T09:59:55.733Z,8268.00
2019-05-02T10:00:52.499Z,8388.00
2019-05-02T10:01:52.736Z,8244.00
2019-05-02T10:02:52.368Z,9328.00
2019-05-02T10:03:52.009Z,9724.00
2019-05-02T10:04:52.456Z,9444.00
2019-05-02T10:05:52.387Z,8896.00
2019-05-02T10:06:52.587Z,8508.00
2019-05-02T10:07:52.604Z,11404.00
2019-05-02T10:08:52.199Z,12488.00
2019-05-02T10:09:52.005Z,11840.00
2019-05-02T10:10:52.217Z,11460.00
2019-05-02T10:11:52.582Z,14812.00
2019-05-02T10:12:52.156Z,15612.00
2019-05-02T10:13:53.779Z,15480.00
2019-05-02T10:14:52.651Z,13848.00
2019-05-02T10:15:52.735Z,11896.00
2019-05-02T10:16:52.999Z,9488.00
2019-05-02T10:17:52.035Z,11400.00
2019-05-02T10:18:52.369Z,13784.00
2019-05-02T10:19:56.997Z,16112.00
2019-05-02T10:20:52.775Z,16960.00
2019-05-02T10:21:55.022Z,14816.00
2019-05-02T10:22:53.048Z,13980.00
2019-05-02T10:23:59.131Z,14184.00
2019-05-02T10:24:52.727Z,13864.00
2019-05-02T10:25:52.166Z,13348.00
2019-05-02T10:26:55.154Z,11196.00
2019-05-02T10:27:52.696Z,9844.00
2019-05-02T10:28:53.312Z,10412.00
2019-05-02T10:29:52.467Z,10712.00
2019-05-02T10:30:55.102Z,10668.00
2019-05-02T10:31:52.850Z,12208.00
2019-05-02T10:32:56.141Z,10784.00
2019-05-02T10:33:53.002Z,9148.00
2019-05-02T10:34:55.362Z,8980.00
2019-05-02T10:35:52.494Z,10180.00
2019-05-02T10:36:58.531Z,8988.00
2019-05-02T10:37:52.586Z,8632.00
2019-05-02T10:38:57.410Z,9108.00
2019-05-02T10:39:55.775Z,8368.00
2019-05-02T10:40:54.580Z,7596.00
2019-05-02T10:41:52.820Z,7540.00
2019-05-02T10:42:52.213Z,8896.00
2019-05-02T10:43:55.898Z,9504.00
2019-05-02T10:44:52.509Z,9336.00
2019-05-02T10:45:52.799Z,8912.00
2019-05-02T10:46:52.329Z,9492.00
2019-05-02T10:47:52.716Z,9196.00
2019-05-02T10:48:52.554Z,8512.00
2019-05-02T10:49:52.697Z,8932.00
2019-05-02T10:50:52.511Z,8536.00
2019-05-02T10:51:53.655Z,10288.00
2019-05-02T10:52:52.705Z,10740.00
2019-05-02T10:53:52.658Z,9232.00
2019-05-02T10:54:52.821Z,9480.00
2019-05-02T10:55:52.342Z,8892.00
2019-05-02T10:56:51.902Z,8392.00
2019-05-02T10:57:52.729Z,8084.00
2019-05-02T10:58:52.331Z,9948.00
2019-05-02T10:59:52.563Z,11348.00
2019-05-02T11:00:52.293Z,9488.00
2019-05-02T11:01:52.193Z,8248.00
2019-05-02T11:02:52.478Z,8108.00
2019-05-02T11:03:51.727Z,8356.00
2019-05-02T11:04:52.473Z,7388.00
2019-05-02T11:05:52.858Z,7772.00
2019-05-02T11:06:51.807Z,8116.00
2019-05-02T11:07:52.295Z,7392.00
2019-05-02T11:08:52.400Z,6820.00
2019-05-02T11:09:52.561Z,7220.00
2019-05-02T11:10:52.705Z,8676.00
2019-05-02T11:11:52.010Z,7444.00
2019-05-02T11:12:52.646Z,8948.00
2019-05-02T11:13:55.380Z,8752.00
2019-05-02T11:14:52.188Z,8324.00
2019-05-02T11:15:52.472Z,7920.00
2019-05-02T11:16:52.514Z,7920.00
2019-05-02T11:17:52.924Z,8516.00
2019-05-02T11:18:52.518Z,9032.00
2019-05-02T11:19:52.306Z,8076.00
2019-05-02T11:20:52.394Z,7128.00
2019-05-02T11:21:56.351Z,7064.00
2019-05-02T11:22:54.504Z,7736.00
2019-05-02T11:23:52.590Z,8256.00
2019-05-02T11:24:52.341Z,9092.00
2019-05-02T11:25:52.662Z,9932.00
2019-05-02T11:26:52.872Z,9908.00
2019-05-02T11:27:52.465Z,10972.00
2019-05-02T11:28:52.141Z,10728.00
2019-05-02T11:29:52.579Z,9772.00
2019-05-02T11:30:52.467Z,8800.00
2019-05-02T11:31:52.123Z,8380.00
2019-05-02T11:32:52.131Z,8160.00
2019-05-02T11:33:52.724Z,8664.00
2019-05-02T11:34:52.435Z,9020.00
2019-05-02T11:35:51.543Z,9588.00
2019-05-02T11:36:52.669Z,10096.00
2019-05-02T11:37:51.643Z,9436.00
2019-05-02T11:38:57.310Z,8132.00
2019-05-02T11:39:58.943Z,8148.00
2019-05-02T11:40:52.169Z,8448.00
2019-05-02T11:41:52.730Z,8788.00
2019-05-02T11:42:52.167Z,9720.00
2019-05-02T11:43:54.133Z,9888.00
2019-05-02T11:44:52.369Z,10188.00
2019-05-02T11:45:54.406Z,10016.00
2019-05-02T11:46:52.148Z,8872.00
2019-05-02T11:47:53.365Z,8392.00
2019-05-02T11:48:56.386Z,8568.00
2019-05-02T11:49:55.728Z,8628.00
2019-05-02T11:50:52.281Z,7956.00
2019-05-02T11:51:55.339Z,8472.00
2019-05-02T11:52:52.255Z,7792.00
2019-05-02T11:53:52.747Z,7428.00
2019-05-02T11:54:52.111Z,7476.00
2019-05-02T11:55:50.749Z,6788.00
2019-05-02T11:56:53.370Z,6912.00
2019-05-02T11:57:52.327Z,7944.00
2019-05-02T11:58:52.632Z,7956.00
2019-05-02T11:59:52.097Z,7548.00
2019-05-02T12:00:52.296Z,8640.00
2019-05-02T12:01:59.823Z,11312.00
2019-05-02T12:02:54.271Z,13168.00
2019-05-02T12:03:52.427Z,12624.00
2019-05-02T12:04:54.342Z,12284.00
2019-05-02T12:05:52.430Z,14012.00
2019-05-02T12:07:01.081Z,13176.00
2019-05-02T12:07:52.663Z,11736.00
2019-05-02T12:08:52.618Z,10836.00
2019-05-02T12:09:55.579Z,9540.00
2019-05-02T12:10:52.001Z,9424.00
2019-05-02T12:11:52.765Z,9364.00
2019-05-02T12:12:52.666Z,8388.00
2019-05-02T12:13:52.736Z,10376.00
2019-05-02T12:14:52.813Z,11304.00
2019-05-02T12:15:51.934Z,10232.00
2019-05-02T12:16:52.612Z,10572.00
2019-05-02T12:17:51.646Z,12212.00
2019-05-02T12:18:50.505Z,13516.00
2019-05-02T12:19:52.337Z,12036.00
2019-05-02T12:20:52.044Z,10404.00
2019-05-02T12:21:50.476Z,10248.00
2019-05-02T12:22:52.645Z,10300.00
2019-05-02T12:23:52.761Z,11328.00
2019-05-02T12:24:51.915Z,10616.00